sensor_id;sensor_type;location;lat;lon;timestamp;pressure;altitude;pressure_sealevel;temperature;humidity
10474;BME280;5284;50.446;7.904;2022-10-29T00:09:49;99081.75;;;12.97;100.00
10474;BME280;5284;50.446;7.904;2022-10-29T00:14:53;99074.84;;;12.95;100.00
10474;BME280;5284;50.446;7.904;2022-10-29T00:19:55;99075.00;;;12.82;100.00
10474;BME280;5284;50.446;7.904;2022-10-29T00:24:58;99061.75;;;12.81;100.00
10474;BME280;5284;50.446;7.904;2022-10-29T00:30:03;99047.66;;;12.79;100.00
10474;BME280;5284;50.446;7.904;2022-10-29T00:35:07;99058.63;;;12.76;100.00
10474;BME280;5284;50.446;7.904;2022-10-29T00:40:11;99060.56;;;12.74;100.00
10474;BME280;5284;50.446;7.904;2022-10-29T00:45:19;99060.66;;;12.63;100.00
10474;BME280;5284;50.446;7.904;2022-10-29T00:50:23;99060.69;;;12.52;100.00
10474;BME280;5284;50.446;7.904;2022-10-29T00:55:26;99069.50;;;12.43;100.00
10474;BME280;5284;50.446;7.904;2022-10-29T01:00:30;99067.22;;;12.38;100.00
10474;BME280;5284;50.446;7.904;2022-10-29T01:05:34;99066.91;;;12.32;100.00
10474;BME280;5284;50.446;7.904;2022-10-29T01:10:45;99066.44;;;12.27;100.00
10474;BME280;5284;50.446;7.904;2022-10-29T01:16:01;99064.03;;;12.13;100.00
10474;BME280;5284;50.446;7.904;2022-10-29T01:21:35;99069.28;;;12.15;100.00
10474;BME280;5284;50.446;7.904;2022-10-29T01:26:57;99080.72;;;12.06;100.00
10474;BME280;5284;50.446;7.904;2022-10-29T01:32:09;99079.50;;;12.10;100.00
10474;BME280;5284;50.446;7.904;2022-10-29T01:37:15;99084.50;;;12.03;100.00
10474;BME280;5284;50.446;7.904;2022-10-29T01:42:24;99072.47;;;11.98;100.00
10474;BME280;5284;50.446;7.904;2022-10-29T01:47:34;99060.50;;;11.92;100.00
10474;BME280;5284;50.446;7.904;2022-10-29T01:52:38;99059.25;;;11.85;100.00
10474;BME280;5284;50.446;7.904;2022-10-29T01:57:42;99050.16;;;11.88;100.00
10474;BME280;5284;50.446;7.904;2022-10-29T02:02:57;99043.75;;;11.79;100.00
10474;BME280;5284;50.446;7.904;2022-10-29T02:08:11;99039.88;;;11.72;100.00
10474;BME280;5284;50.446;7.904;2022-10-29T02:13:17;99034.91;;;11.68;100.00
10474;BME280;5284;50.446;7.904;2022-10-29T02:18:26;99034.69;;;11.60;100.00
10474;BME280;5284;50.446;7.904;2022-10-29T02:23:28;99030.44;;;11.57;100.00
10474;BME280;5284;50.446;7.904;2022-10-29T02:28:32;99030.16;;;11.49;100.00
10474;BME280;5284;50.446;7.904;2022-10-29T02:33:36;99021.69;;;11.44;100.00
10474;BME280;5284;50.446;7.904;2022-10-29T02:38:38;99032.00;;;11.38;100.00
10474;BME280;5284;50.446;7.904;2022-10-29T02:43:41;99022.69;;;11.32;100.00
10474;BME280;5284;50.446;7.904;2022-10-29T02:48:46;99017.84;;;11.26;100.00
10474;BME280;5284;50.446;7.904;2022-10-29T02:53:49;99002.78;;;11.25;100.00
10474;BME280;5284;50.446;7.904;2022-10-29T02:58:51;99008.50;;;11.21;100.00
10474;BME280;5284;50.446;7.904;2022-10-29T03:03:56;99007.16;;;11.15;100.00
10474;BME280;5284;50.446;7.904;2022-10-29T03:08:59;99017.50;;;11.09;100.00
10474;BME280;5284;50.446;7.904;2022-10-29T03:14:02;99021.13;;;11.08;100.00
10474;BME280;5284;50.446;7.904;2022-10-29T03:19:06;99011.78;;;11.02;100.00
10474;BME280;5284;50.446;7.904;2022-10-29T03:24:09;99007.41;;;11.01;100.00
10474;BME280;5284;50.446;7.904;2022-10-29T03:29:12;99003.53;;;10.94;100.00
10474;BME280;5284;50.446;7.904;2022-10-29T03:34:16;98985.22;;;10.90;100.00
10474;BME280;5284;50.446;7.904;2022-10-29T03:39:19;98987.25;;;10.86;100.00
10474;BME280;5284;50.446;7.904;2022-10-29T03:44:22;98992.13;;;10.92;100.00
10474;BME280;5284;50.446;7.904;2022-10-29T03:49:26;99002.69;;;10.94;100.00
10474;BME280;5284;50.446;7.904;2022-10-29T03:54:29;98992.00;;;10.94;100.00
10474;BME280;5284;50.446;7.904;2022-10-29T03:59:32;99008.16;;;10.92;100.00
10474;BME280;5284;50.446;7.904;2022-10-29T04:05:00;99019.16;;;10.88;100.00
10474;BME280;5284;50.446;7.904;2022-10-29T04:10:03;99008.50;;;10.88;100.00
10474;BME280;5284;50.446;7.904;2022-10-29T04:15:07;98999.88;;;10.84;100.00
10474;BME280;5284;50.446;7.904;2022-10-29T04:20:13;99007.78;;;10.86;100.00
10474;BME280;5284;50.446;7.904;2022-10-29T04:25:36;99011.16;;;10.88;100.00
10474;BME280;5284;50.446;7.904;2022-10-29T04:31:02;99018.31;;;10.87;100.00
10474;BME280;5284;50.446;7.904;2022-10-29T04:36:07;99023.44;;;10.90;100.00
10474;BME280;5284;50.446;7.904;2022-10-29T04:41:10;99002.91;;;10.91;100.00
10474;BME280;5284;50.446;7.904;2022-10-29T04:46:13;99000.88;;;10.94;100.00
10474;BME280;5284;50.446;7.904;2022-10-29T04:51:19;99019.78;;;11.02;100.00
10474;BME280;5284;50.446;7.904;2022-10-29T04:56:22;99017.34;;;11.10;100.00
10474;BME280;5284;50.446;7.904;2022-10-29T05:01:25;99018.06;;;11.12;100.00
10474;BME280;5284;50.446;7.904;2022-10-29T05:06:29;99013.09;;;11.19;100.00
10474;BME280;5284;50.446;7.904;2022-10-29T05:11:32;99016.16;;;11.25;100.00
10474;BME280;5284;50.446;7.904;2022-10-29T05:16:35;98996.94;;;11.31;100.00
10474;BME280;5284;50.446;7.904;2022-10-29T05:21:39;98985.88;;;11.36;100.00
10474;BME280;5284;50.446;7.904;2022-10-29T05:26:42;98971.44;;;11.38;100.00
10474;BME280;5284;50.446;7.904;2022-10-29T05:31:45;98971.19;;;11.41;100.00
10474;BME280;5284;50.446;7.904;2022-10-29T05:36:49;98971.91;;;11.43;100.00
10474;BME280;5284;50.446;7.904;2022-10-29T05:41:52;98969.59;;;11.50;100.00
10474;BME280;5284;50.446;7.904;2022-10-29T05:46:55;98956.97;;;11.52;100.00
10474;BME280;5284;50.446;7.904;2022-10-29T05:51:59;98966.34;;;11.57;100.00
10474;BME280;5284;50.446;7.904;2022-10-29T05:57:01;98962.44;;;11.61;100.00
10474;BME280;5284;50.446;7.904;2022-10-29T06:02:04;98953.31;;;11.64;100.00
10474;BME280;5284;50.446;7.904;2022-10-29T06:07:09;98965.19;;;11.71;100.00
10474;BME280;5284;50.446;7.904;2022-10-29T06:12:12;98962.84;;;11.77;100.00
10474;BME280;5284;50.446;7.904;2022-10-29T06:17:14;98954.47;;;11.82;100.00
10474;BME280;5284;50.446;7.904;2022-10-29T06:22:19;98960.28;;;11.87;100.00
10474;BME280;5284;50.446;7.904;2022-10-29T06:27:21;98955.50;;;11.90;100.00
10474;BME280;5284;50.446;7.904;2022-10-29T06:32:24;98956.25;;;11.92;100.00
10474;BME280;5284;50.446;7.904;2022-10-29T06:37:28;98963.59;;;12.00;100.00
10474;BME280;5284;50.446;7.904;2022-10-29T06:42:33;98955.91;;;12.06;100.00
10474;BME280;5284;50.446;7.904;2022-10-29T06:47:39;98965.25;;;12.12;100.00
10474;BME280;5284;50.446;7.904;2022-10-29T06:52:52;98961.81;;;12.20;100.00
10474;BME280;5284;50.446;7.904;2022-10-29T06:57:57;98969.03;;;12.29;100.00
10474;BME280;5284;50.446;7.904;2022-10-29T07:03:01;98975.06;;;12.42;100.00
10474;BME280;5284;50.446;7.904;2022-10-29T07:08:07;98973.84;;;12.56;100.00
10474;BME280;5284;50.446;7.904;2022-10-29T07:13:10;98971.94;;;12.67;100.00
10474;BME280;5284;50.446;7.904;2022-10-29T07:18:13;98971.72;;;12.80;100.00
10474;BME280;5284;50.446;7.904;2022-10-29T07:23:18;98978.81;;;12.90;100.00
10474;BME280;5284;50.446;7.904;2022-10-29T07:28:22;98979.03;;;12.98;100.00
10474;BME280;5284;50.446;7.904;2022-10-29T07:33:29;98973.72;;;13.08;100.00
10474;BME280;5284;50.446;7.904;2022-10-29T07:38:34;98963.16;;;13.16;100.00
10474;BME280;5284;50.446;7.904;2022-10-29T07:43:36;98973.47;;;13.20;100.00
10474;BME280;5284;50.446;7.904;2022-10-29T07:48:40;98979.88;;;13.29;100.00
10474;BME280;5284;50.446;7.904;2022-10-29T07:53:44;98986.50;;;13.44;100.00
10474;BME280;5284;50.446;7.904;2022-10-29T07:58:47;98994.84;;;13.60;100.00
10474;BME280;5284;50.446;7.904;2022-10-29T08:03:50;98981.47;;;13.69;100.00
10474;BME280;5284;50.446;7.904;2022-10-29T08:08:54;98988.84;;;13.86;100.00
10474;BME280;5284;50.446;7.904;2022-10-29T08:13:58;98989.00;;;14.03;100.00
10474;BME280;5284;50.446;7.904;2022-10-29T08:19:00;98990.72;;;14.23;100.00
10474;BME280;5284;50.446;7.904;2022-10-29T08:24:05;98999.91;;;14.30;100.00
10474;BME280;5284;50.446;7.904;2022-10-29T08:29:08;98997.06;;;14.41;100.00
10474;BME280;5284;50.446;7.904;2022-10-29T08:34:11;98988.72;;;14.54;100.00
10474;BME280;5284;50.446;7.904;2022-10-29T08:39:15;98985.44;;;14.69;100.00
10474;BME280;5284;50.446;7.904;2022-10-29T08:50:01;98995.91;;;15.09;100.00
10474;BME280;5284;50.446;7.904;2022-10-29T08:55:12;98995.97;;;15.26;100.00
10474;BME280;5284;50.446;7.904;2022-10-29T09:00:17;98986.84;;;15.46;100.00
10474;BME280;5284;50.446;7.904;2022-10-29T09:05:25;98982.94;;;15.58;100.00
10474;BME280;5284;50.446;7.904;2022-10-29T09:10:36;98990.03;;;15.76;100.00
10474;BME280;5284;50.446;7.904;2022-10-29T09:15:57;98987.25;;;15.95;100.00
10474;BME280;5284;50.446;7.904;2022-10-29T09:21:09;98986.06;;;16.15;100.00
10474;BME280;5284;50.446;7.904;2022-10-29T09:26:16;98986.78;;;16.17;100.00
10474;BME280;5284;50.446;7.904;2022-10-29T09:31:28;98982.44;;;16.34;100.00
10474;BME280;5284;50.446;7.904;2022-10-29T09:36:37;98980.09;;;16.56;100.00
10474;BME280;5284;50.446;7.904;2022-10-29T09:41:42;98971.38;;;16.62;100.00
10474;BME280;5284;50.446;7.904;2022-10-29T09:46:51;98970.19;;;16.65;100.00
10474;BME280;5284;50.446;7.904;2022-10-29T09:52:01;98959.78;;;16.95;100.00
10474;BME280;5284;50.446;7.904;2022-10-29T09:57:14;98977.59;;;17.13;100.00
10474;BME280;5284;50.446;7.904;2022-10-29T10:02:27;98970.53;;;17.20;100.00
10474;BME280;5284;50.446;7.904;2022-10-29T10:07:31;98961.22;;;17.15;100.00
10474;BME280;5284;50.446;7.904;2022-10-29T10:12:47;98978.94;;;17.17;100.00
10474;BME280;5284;50.446;7.904;2022-10-29T10:17:56;98970.25;;;17.31;100.00
10474;BME280;5284;50.446;7.904;2022-10-29T10:23:18;98958.34;;;17.34;100.00
10474;BME280;5284;50.446;7.904;2022-10-29T10:28:24;98959.53;;;17.14;100.00
10474;BME280;5284;50.446;7.904;2022-10-29T10:33:27;98963.75;;;17.08;100.00
10474;BME280;5284;50.446;7.904;2022-10-29T10:38:37;98957.06;;;17.20;100.00
10474;BME280;5284;50.446;7.904;2022-10-29T10:43:43;98950.69;;;17.29;100.00
10474;BME280;5284;50.446;7.904;2022-10-29T10:48:56;98941.38;;;17.57;100.00
10474;BME280;5284;50.446;7.904;2022-10-29T10:54:02;98940.44;;;17.98;100.00
10474;BME280;5284;50.446;7.904;2022-10-29T10:59:11;98937.25;;;18.11;100.00
10474;BME280;5284;50.446;7.904;2022-10-29T11:04:19;98935.13;;;18.38;100.00
10474;BME280;5284;50.446;7.904;2022-10-29T11:09:28;98928.69;;;18.47;100.00
10474;BME280;5284;50.446;7.904;2022-10-29T11:14:36;98935.09;;;18.62;100.00
10474;BME280;5284;50.446;7.904;2022-10-29T11:19:45;98929.84;;;18.68;100.00
10474;BME280;5284;50.446;7.904;2022-10-29T11:24:54;98921.25;;;18.57;100.00
10474;BME280;5284;50.446;7.904;2022-10-29T11:30:04;98917.56;;;18.50;100.00
10474;BME280;5284;50.446;7.904;2022-10-29T11:35:11;98920.91;;;18.60;100.00
10474;BME280;5284;50.446;7.904;2022-10-29T11:40:18;98920.88;;;18.68;100.00
10474;BME280;5284;50.446;7.904;2022-10-29T11:45:33;98902.09;;;18.82;100.00
10474;BME280;5284;50.446;7.904;2022-10-29T11:50:44;98912.47;;;18.63;100.00
10474;BME280;5284;50.446;7.904;2022-10-29T11:55:56;98903.66;;;18.69;100.00
10474;BME280;5284;50.446;7.904;2022-10-29T12:01:11;98898.94;;;18.79;100.00
10474;BME280;5284;50.446;7.904;2022-10-29T12:06:22;98897.59;;;18.75;100.00
10474;BME280;5284;50.446;7.904;2022-10-29T12:11:34;98883.38;;;18.81;100.00
10474;BME280;5284;50.446;7.904;2022-10-29T12:16:51;98876.63;;;18.69;100.00
10474;BME280;5284;50.446;7.904;2022-10-29T12:22:03;98876.28;;;18.80;100.00
10474;BME280;5284;50.446;7.904;2022-10-29T12:27:12;98872.03;;;18.85;100.00
10474;BME280;5284;50.446;7.904;2022-10-29T12:32:24;98871.63;;;19.04;100.00
10474;BME280;5284;50.446;7.904;2022-10-29T12:37:35;98888.84;;;19.50;100.00
10474;BME280;5284;50.446;7.904;2022-10-29T12:42:43;98879.13;;;19.63;100.00
10474;BME280;5284;50.446;7.904;2022-10-29T12:47:53;98881.00;;;19.85;100.00
10474;BME280;5284;50.446;7.904;2022-10-29T12:53:10;98880.59;;;19.74;100.00
10474;BME280;5284;50.446;7.904;2022-10-29T12:58:42;98873.00;;;19.92;99.50
10474;BME280;5284;50.446;7.904;2022-10-29T13:04:01;98869.94;;;19.72;99.95
10474;BME280;5284;50.446;7.904;2022-10-29T13:09:14;98864.47;;;19.80;100.00
10474;BME280;5284;50.446;7.904;2022-10-29T13:14:23;98862.13;;;19.77;100.00
10474;BME280;5284;50.446;7.904;2022-10-29T13:19:46;98852.19;;;19.92;100.00
10474;BME280;5284;50.446;7.904;2022-10-29T13:30:27;98842.19;;;19.93;100.00
10474;BME280;5284;50.446;7.904;2022-10-29T13:35:41;98842.63;;;19.82;99.62
10474;BME280;5284;50.446;7.904;2022-10-29T13:46:44;98830.28;;;19.57;100.00
10474;BME280;5284;50.446;7.904;2022-10-29T13:51:55;98838.63;;;19.70;100.00
10474;BME280;5284;50.446;7.904;2022-10-29T13:57:01;98832.69;;;19.52;100.00
10474;BME280;5284;50.446;7.904;2022-10-29T14:02:29;98823.91;;;19.50;100.00
10474;BME280;5284;50.446;7.904;2022-10-29T14:07:43;98826.03;;;19.40;100.00
10474;BME280;5284;50.446;7.904;2022-10-29T14:12:53;98808.63;;;19.34;100.00
10474;BME280;5284;50.446;7.904;2022-10-29T14:17:57;98794.63;;;19.53;100.00
10474;BME280;5284;50.446;7.904;2022-10-29T14:23:07;98801.19;;;19.59;100.00
10474;BME280;5284;50.446;7.904;2022-10-29T14:28:15;98810.97;;;19.60;100.00
10474;BME280;5284;50.446;7.904;2022-10-29T14:33:23;98812.38;;;19.56;100.00
10474;BME280;5284;50.446;7.904;2022-10-29T14:38:33;98804.31;;;19.48;100.00
10474;BME280;5284;50.446;7.904;2022-10-29T14:43:39;98807.59;;;19.35;100.00
10474;BME280;5284;50.446;7.904;2022-10-29T14:48:52;98808.19;;;19.23;100.00
10474;BME280;5284;50.446;7.904;2022-10-29T14:54:00;98806.38;;;19.07;100.00
10474;BME280;5284;50.446;7.904;2022-10-29T14:59:12;98812.03;;;18.90;100.00
10474;BME280;5284;50.446;7.904;2022-10-29T15:04:22;98810.25;;;18.74;100.00
10474;BME280;5284;50.446;7.904;2022-10-29T15:09:26;98814.50;;;18.61;100.00
10474;BME280;5284;50.446;7.904;2022-10-29T15:14:35;98812.53;;;18.47;100.00
10474;BME280;5284;50.446;7.904;2022-10-29T15:19:42;98805.63;;;18.37;100.00
10474;BME280;5284;50.446;7.904;2022-10-29T15:24:49;98795.03;;;18.27;100.00
10474;BME280;5284;50.446;7.904;2022-10-29T15:29:54;98802.78;;;18.14;100.00
10474;BME280;5284;50.446;7.904;2022-10-29T15:34:57;98797.72;;;18.03;100.00
10474;BME280;5284;50.446;7.904;2022-10-29T15:40:04;98804.50;;;17.91;100.00
10474;BME280;5284;50.446;7.904;2022-10-29T15:45:21;98790.50;;;17.80;100.00
10474;BME280;5284;50.446;7.904;2022-10-29T15:50:27;98790.66;;;17.62;100.00
10474;BME280;5284;50.446;7.904;2022-10-29T15:55:35;98797.91;;;17.46;100.00
10474;BME280;5284;50.446;7.904;2022-10-29T16:00:39;98784.53;;;17.28;100.00
10474;BME280;5284;50.446;7.904;2022-10-29T16:05:44;98785.34;;;17.13;100.00
10474;BME280;5284;50.446;7.904;2022-10-29T16:10:49;98781.28;;;16.93;100.00
10474;BME280;5284;50.446;7.904;2022-10-29T16:15:52;98791.50;;;16.82;100.00
10474;BME280;5284;50.446;7.904;2022-10-29T16:20:57;98785.75;;;16.69;100.00
10474;BME280;5284;50.446;7.904;2022-10-29T16:26:01;98786.00;;;16.58;100.00
10474;BME280;5284;50.446;7.904;2022-10-29T16:31:14;98780.06;;;16.46;100.00
10474;BME280;5284;50.446;7.904;2022-10-29T16:36:19;98786.28;;;16.39;100.00
10474;BME280;5284;50.446;7.904;2022-10-29T16:41:24;98782.78;;;16.29;100.00
10474;BME280;5284;50.446;7.904;2022-10-29T16:46:28;98792.00;;;16.18;100.00
10474;BME280;5284;50.446;7.904;2022-10-29T16:51:30;98783.72;;;16.12;100.00
10474;BME280;5284;50.446;7.904;2022-10-29T16:56:35;98783.69;;;16.04;100.00
10474;BME280;5284;50.446;7.904;2022-10-29T17:01:37;98778.06;;;15.97;100.00
10474;BME280;5284;50.446;7.904;2022-10-29T17:06:40;98781.53;;;15.90;100.00
10474;BME280;5284;50.446;7.904;2022-10-29T17:11:44;98781.50;;;15.82;100.00
10474;BME280;5284;50.446;7.904;2022-10-29T17:16:47;98773.38;;;15.74;100.00
10474;BME280;5284;50.446;7.904;2022-10-29T17:21:50;98784.91;;;15.66;100.00
10474;BME280;5284;50.446;7.904;2022-10-29T17:26:55;98786.34;;;15.61;100.00
10474;BME280;5284;50.446;7.904;2022-10-29T17:31:57;98776.09;;;15.56;100.00
10474;BME280;5284;50.446;7.904;2022-10-29T17:37:00;98778.56;;;15.50;100.00
10474;BME280;5284;50.446;7.904;2022-10-29T17:42:04;98785.38;;;15.44;100.00
10474;BME280;5284;50.446;7.904;2022-10-29T17:47:07;98795.25;;;15.36;100.00
10474;BME280;5284;50.446;7.904;2022-10-29T17:52:11;98779.97;;;15.27;100.00
10474;BME280;5284;50.446;7.904;2022-10-29T17:57:15;98789.97;;;15.17;100.00
10474;BME280;5284;50.446;7.904;2022-10-29T18:02:19;98785.66;;;15.07;100.00
10474;BME280;5284;50.446;7.904;2022-10-29T18:07:22;98780.50;;;14.96;100.00
10474;BME280;5284;50.446;7.904;2022-10-29T18:12:27;98773.50;;;14.85;100.00
10474;BME280;5284;50.446;7.904;2022-10-29T18:17:30;98772.88;;;14.74;100.00
10474;BME280;5284;50.446;7.904;2022-10-29T18:22:33;98777.03;;;14.68;100.00
10474;BME280;5284;50.446;7.904;2022-10-29T18:27:37;98772.38;;;14.61;100.00
10474;BME280;5284;50.446;7.904;2022-10-29T18:32:40;98769.44;;;14.54;100.00
10474;BME280;5284;50.446;7.904;2022-10-29T18:37:44;98772.44;;;14.51;100.00
10474;BME280;5284;50.446;7.904;2022-10-29T18:42:49;98781.09;;;14.45;100.00
10474;BME280;5284;50.446;7.904;2022-10-29T18:47:52;98772.25;;;14.35;100.00
10474;BME280;5284;50.446;7.904;2022-10-29T18:52:55;98778.94;;;14.22;100.00
10474;BME280;5284;50.446;7.904;2022-10-29T18:57:59;98781.63;;;14.12;100.00
10474;BME280;5284;50.446;7.904;2022-10-29T19:03:02;98781.22;;;14.07;100.00
10474;BME280;5284;50.446;7.904;2022-10-29T19:08:06;98785.47;;;14.00;100.00
10474;BME280;5284;50.446;7.904;2022-10-29T19:13:11;98780.97;;;13.91;100.00
10474;BME280;5284;50.446;7.904;2022-10-29T19:18:14;98784.53;;;13.82;100.00
10474;BME280;5284;50.446;7.904;2022-10-29T19:23:17;98776.34;;;13.74;100.00
10474;BME280;5284;50.446;7.904;2022-10-29T19:28:23;98789.34;;;13.70;100.00
10474;BME280;5284;50.446;7.904;2022-10-29T19:33:25;98794.31;;;13.65;100.00
10474;BME280;5284;50.446;7.904;2022-10-29T19:38:29;98792.03;;;13.60;100.00
10474;BME280;5284;50.446;7.904;2022-10-29T19:43:33;98791.91;;;13.52;100.00
10474;BME280;5284;50.446;7.904;2022-10-29T19:48:36;98787.25;;;13.45;100.00
10474;BME280;5284;50.446;7.904;2022-10-29T19:53:39;98789.94;;;13.35;100.00
10474;BME280;5284;50.446;7.904;2022-10-29T19:58:44;98782.63;;;13.28;100.00
10474;BME280;5284;50.446;7.904;2022-10-29T20:03:47;98776.13;;;13.21;100.00
10474;BME280;5284;50.446;7.904;2022-10-29T20:08:50;98779.25;;;13.16;100.00
10474;BME280;5284;50.446;7.904;2022-10-29T20:13:55;98782.03;;;13.15;100.00
10474;BME280;5284;50.446;7.904;2022-10-29T20:18:57;98789.25;;;13.14;100.00
10474;BME280;5284;50.446;7.904;2022-10-29T20:24:00;98776.84;;;13.13;100.00
10474;BME280;5284;50.446;7.904;2022-10-29T20:29:05;98774.28;;;13.12;100.00
10474;BME280;5284;50.446;7.904;2022-10-29T20:34:08;98765.69;;;13.08;100.00
10474;BME280;5284;50.446;7.904;2022-10-29T20:39:11;98764.00;;;13.07;100.00
10474;BME280;5284;50.446;7.904;2022-10-29T20:44:16;98758.78;;;13.06;100.00
10474;BME280;5284;50.446;7.904;2022-10-29T20:49:18;98755.25;;;13.05;100.00
10474;BME280;5284;50.446;7.904;2022-10-29T20:54:21;98753.56;;;13.04;100.00
10474;BME280;5284;50.446;7.904;2022-10-29T20:59:26;98761.06;;;13.01;100.00
10474;BME280;5284;50.446;7.904;2022-10-29T21:04:28;98760.06;;;13.02;100.00
10474;BME280;5284;50.446;7.904;2022-10-29T21:09:31;98762.47;;;13.05;100.00
10474;BME280;5284;50.446;7.904;2022-10-29T21:14:35;98761.19;;;12.99;100.00
10474;BME280;5284;50.446;7.904;2022-10-29T21:19:38;98755.00;;;12.99;100.00
10474;BME280;5284;50.446;7.904;2022-10-29T21:24:41;98763.03;;;12.99;100.00
10474;BME280;5284;50.446;7.904;2022-10-29T21:29:48;98761.34;;;12.98;100.00
10474;BME280;5284;50.446;7.904;2022-10-29T21:34:50;98756.25;;;12.95;100.00
10474;BME280;5284;50.446;7.904;2022-10-29T21:39:53;98765.81;;;12.97;100.00
10474;BME280;5284;50.446;7.904;2022-10-29T21:45:06;98756.69;;;13.00;100.00
10474;BME280;5284;50.446;7.904;2022-10-29T21:50:09;98764.13;;;12.96;100.00
10474;BME280;5284;50.446;7.904;2022-10-29T21:55:12;98760.88;;;12.93;100.00
10474;BME280;5284;50.446;7.904;2022-10-29T22:00:18;98759.75;;;12.95;100.00
10474;BME280;5284;50.446;7.904;2022-10-29T22:05:22;98766.53;;;12.99;100.00
10474;BME280;5284;50.446;7.904;2022-10-29T22:10:25;98755.41;;;12.94;100.00
10474;BME280;5284;50.446;7.904;2022-10-29T22:15:29;98759.06;;;12.93;100.00
10474;BME280;5284;50.446;7.904;2022-10-29T22:20:32;98754.94;;;12.89;100.00
10474;BME280;5284;50.446;7.904;2022-10-29T22:25:34;98751.41;;;12.89;100.00
10474;BME280;5284;50.446;7.904;2022-10-29T22:30:39;98759.59;;;12.87;100.00
10474;BME280;5284;50.446;7.904;2022-10-29T22:35:41;98761.28;;;12.88;100.00
10474;BME280;5284;50.446;7.904;2022-10-29T22:40:44;98767.91;;;12.84;100.00
10474;BME280;5284;50.446;7.904;2022-10-29T22:45:48;98767.03;;;12.84;100.00
10474;BME280;5284;50.446;7.904;2022-10-29T22:50:58;98760.97;;;12.82;100.00
10474;BME280;5284;50.446;7.904;2022-10-29T22:56:01;98750.69;;;12.68;100.00
10474;BME280;5284;50.446;7.904;2022-10-29T23:01:07;98742.53;;;12.60;100.00
10474;BME280;5284;50.446;7.904;2022-10-29T23:06:11;98735.19;;;12.62;100.00
10474;BME280;5284;50.446;7.904;2022-10-29T23:11:16;98736.88;;;12.63;100.00
10474;BME280;5284;50.446;7.904;2022-10-29T23:16:23;98736.88;;;12.63;100.00
10474;BME280;5284;50.446;7.904;2022-10-29T23:21:27;98728.72;;;12.64;100.00
10474;BME280;5284;50.446;7.904;2022-10-29T23:26:29;98723.66;;;12.71;100.00
10474;BME280;5284;50.446;7.904;2022-10-29T23:31:34;98735.50;;;12.78;100.00
10474;BME280;5284;50.446;7.904;2022-10-29T23:36:36;98737.88;;;12.81;100.00
10474;BME280;5284;50.446;7.904;2022-10-29T23:41:39;98741.53;;;12.80;100.00
10474;BME280;5284;50.446;7.904;2022-10-29T23:46:43;98741.25;;;12.83;100.00
10474;BME280;5284;50.446;7.904;2022-10-29T23:51:46;98737.59;;;12.84;100.00
10474;BME280;5284;50.446;7.904;2022-10-29T23:56:49;98743.38;;;12.89;100.00
